sensor_id;sensor_type;location;lat;lon;timestamp;P1;durP1;ratioP1;P2;durP2;ratioP2
26106;SDS011;13866;50.748;12.630;2022-11-21T00:00:44;4.37;;;4.27;;
26106;SDS011;13866;50.748;12.630;2022-11-21T00:03:12;4.03;;;4.03;;
26106;SDS011;13866;50.748;12.630;2022-11-21T00:05:39;3.83;;;3.83;;
26106;SDS011;13866;50.748;12.630;2022-11-21T00:08:07;4.10;;;4.00;;
26106;SDS011;13866;50.748;12.630;2022-11-21T00:10:34;3.67;;;3.67;;
26106;SDS011;13866;50.748;12.630;2022-11-21T00:13:01;4.23;;;4.17;;
26106;SDS011;13866;50.748;12.630;2022-11-21T00:15:26;3.50;;;3.30;;
26106;SDS011;13866;50.748;12.630;2022-11-21T00:17:52;9.90;;;4.37;;
26106;SDS011;13866;50.748;12.630;2022-11-21T00:20:18;3.30;;;3.30;;
26106;SDS011;13866;50.748;12.630;2022-11-21T00:22:45;4.33;;;4.23;;
26106;SDS011;13866;50.748;12.630;2022-11-21T00:25:11;4.17;;;3.77;;
26106;SDS011;13866;50.748;12.630;2022-11-21T00:27:37;3.47;;;3.37;;
26106;SDS011;13866;50.748;12.630;2022-11-21T00:30:03;2.80;;;2.80;;
26106;SDS011;13866;50.748;12.630;2022-11-21T00:32:30;2.73;;;2.73;;
26106;SDS011;13866;50.748;12.630;2022-11-21T00:34:55;2.10;;;2.10;;
26106;SDS011;13866;50.748;12.630;2022-11-21T00:37:21;2.57;;;2.57;;
26106;SDS011;13866;50.748;12.630;2022-11-21T00:39:46;2.30;;;2.30;;
26106;SDS011;13866;50.748;12.630;2022-11-21T00:42:12;2.47;;;2.47;;
26106;SDS011;13866;50.748;12.630;2022-11-21T00:44:38;2.50;;;2.50;;
26106;SDS011;13866;50.748;12.630;2022-11-21T00:47:03;2.07;;;2.07;;
26106;SDS011;13866;50.748;12.630;2022-11-21T00:49:29;2.33;;;2.33;;
26106;SDS011;13866;50.748;12.630;2022-11-21T00:51:54;1.50;;;1.50;;
26106;SDS011;13866;50.748;12.630;2022-11-21T00:54:20;2.20;;;2.20;;
26106;SDS011;13866;50.748;12.630;2022-11-21T00:56:45;2.10;;;2.10;;
26106;SDS011;13866;50.748;12.630;2022-11-21T00:59:11;1.80;;;1.80;;
26106;SDS011;13866;50.748;12.630;2022-11-21T01:01:36;1.83;;;1.83;;
26106;SDS011;13866;50.748;12.630;2022-11-21T01:04:02;2.17;;;2.17;;
26106;SDS011;13866;50.748;12.630;2022-11-21T01:06:28;2.50;;;2.50;;
26106;SDS011;13866;50.748;12.630;2022-11-21T01:08:54;2.20;;;2.20;;
26106;SDS011;13866;50.748;12.630;2022-11-21T01:11:20;1.70;;;1.70;;
26106;SDS011;13866;50.748;12.630;2022-11-21T01:13:46;1.90;;;1.90;;
26106;SDS011;13866;50.748;12.630;2022-11-21T01:16:14;1.80;;;1.80;;
26106;SDS011;13866;50.748;12.630;2022-11-21T01:18:41;2.00;;;2.00;;
26106;SDS011;13866;50.748;12.630;2022-11-21T01:21:11;1.80;;;1.80;;
26106;SDS011;13866;50.748;12.630;2022-11-21T01:23:45;1.63;;;1.63;;
26106;SDS011;13866;50.748;12.630;2022-11-21T01:26:15;1.60;;;1.60;;
26106;SDS011;13866;50.748;12.630;2022-11-21T01:28:42;2.00;;;2.00;;
26106;SDS011;13866;50.748;12.630;2022-11-21T01:31:09;1.60;;;1.60;;
26106;SDS011;13866;50.748;12.630;2022-11-21T01:33:36;2.00;;;2.00;;
26106;SDS011;13866;50.748;12.630;2022-11-21T01:36:07;1.50;;;1.50;;
26106;SDS011;13866;50.748;12.630;2022-11-21T01:38:34;1.63;;;1.63;;
26106;SDS011;13866;50.748;12.630;2022-11-21T01:41:00;1.60;;;1.60;;
26106;SDS011;13866;50.748;12.630;2022-11-21T01:43:26;1.83;;;1.83;;
26106;SDS011;13866;50.748;12.630;2022-11-21T01:48:31;1.50;;;1.50;;
26106;SDS011;13866;50.748;12.630;2022-11-21T01:51:06;1.93;;;1.93;;
26106;SDS011;13866;50.748;12.630;2022-11-21T01:53:52;1.53;;;1.53;;
26106;SDS011;13866;50.748;12.630;2022-11-21T01:56:37;1.60;;;1.60;;
26106;SDS011;13866;50.748;12.630;2022-11-21T01:59:11;1.70;;;1.70;;
26106;SDS011;13866;50.748;12.630;2022-11-21T02:01:43;1.60;;;1.60;;
26106;SDS011;13866;50.748;12.630;2022-11-21T02:04:10;2.00;;;1.93;;
26106;SDS011;13866;50.748;12.630;2022-11-21T02:06:35;1.50;;;1.50;;
26106;SDS011;13866;50.748;12.630;2022-11-21T02:09:02;2.00;;;2.00;;
26106;SDS011;13866;50.748;12.630;2022-11-21T02:11:31;1.97;;;1.97;;
26106;SDS011;13866;50.748;12.630;2022-11-21T02:14:13;1.90;;;1.90;;
26106;SDS011;13866;50.748;12.630;2022-11-21T02:16:39;1.93;;;1.93;;
26106;SDS011;13866;50.748;12.630;2022-11-21T02:19:05;2.00;;;2.00;;
26106;SDS011;13866;50.748;12.630;2022-11-21T02:21:54;2.13;;;2.13;;
26106;SDS011;13866;50.748;12.630;2022-11-21T02:24:31;2.40;;;2.40;;
26106;SDS011;13866;50.748;12.630;2022-11-21T02:27:08;2.43;;;2.43;;
26106;SDS011;13866;50.748;12.630;2022-11-21T02:29:34;2.20;;;2.20;;
26106;SDS011;13866;50.748;12.630;2022-11-21T02:32:02;2.53;;;2.43;;
26106;SDS011;13866;50.748;12.630;2022-11-21T02:34:29;3.30;;;3.00;;
26106;SDS011;13866;50.748;12.630;2022-11-21T02:36:55;2.33;;;2.33;;
26106;SDS011;13866;50.748;12.630;2022-11-21T02:39:22;2.80;;;2.60;;
26106;SDS011;13866;50.748;12.630;2022-11-21T02:41:56;2.97;;;2.80;;
26106;SDS011;13866;50.748;12.630;2022-11-21T02:44:42;2.73;;;2.63;;
26106;SDS011;13866;50.748;12.630;2022-11-21T02:47:17;3.53;;;3.33;;
26106;SDS011;13866;50.748;12.630;2022-11-21T02:49:54;3.07;;;3.07;;
26106;SDS011;13866;50.748;12.630;2022-11-21T02:52:24;3.73;;;3.33;;
26106;SDS011;13866;50.748;12.630;2022-11-21T02:54:49;2.60;;;2.60;;
26106;SDS011;13866;50.748;12.630;2022-11-21T02:57:15;2.50;;;2.40;;
26106;SDS011;13866;50.748;12.630;2022-11-21T02:59:40;2.63;;;2.63;;
26106;SDS011;13866;50.748;12.630;2022-11-21T03:02:06;2.97;;;2.70;;
26106;SDS011;13866;50.748;12.630;2022-11-21T03:04:31;2.87;;;2.70;;
26106;SDS011;13866;50.748;12.630;2022-11-21T03:06:57;3.30;;;3.20;;
26106;SDS011;13866;50.748;12.630;2022-11-21T03:09:22;5.50;;;2.67;;
26106;SDS011;13866;50.748;12.630;2022-11-21T03:11:48;2.90;;;2.80;;
26106;SDS011;13866;50.748;12.630;2022-11-21T03:14:13;2.87;;;2.87;;
26106;SDS011;13866;50.748;12.630;2022-11-21T03:16:39;3.17;;;3.17;;
26106;SDS011;13866;50.748;12.630;2022-11-21T03:19:04;2.60;;;2.50;;
26106;SDS011;13866;50.748;12.630;2022-11-21T03:21:30;2.27;;;2.27;;
26106;SDS011;13866;50.748;12.630;2022-11-21T03:23:55;6.23;;;3.20;;
26106;SDS011;13866;50.748;12.630;2022-11-21T03:26:21;2.30;;;2.30;;
26106;SDS011;13866;50.748;12.630;2022-11-21T03:28:46;1.80;;;1.80;;
26106;SDS011;13866;50.748;12.630;2022-11-21T03:31:12;2.87;;;2.87;;
26106;SDS011;13866;50.748;12.630;2022-11-21T03:33:37;1.90;;;1.90;;
26106;SDS011;13866;50.748;12.630;2022-11-21T03:36:03;2.67;;;2.47;;
26106;SDS011;13866;50.748;12.630;2022-11-21T03:38:28;2.30;;;2.30;;
26106;SDS011;13866;50.748;12.630;2022-11-21T03:40:54;2.57;;;2.47;;
26106;SDS011;13866;50.748;12.630;2022-11-21T03:43:19;2.00;;;2.00;;
26106;SDS011;13866;50.748;12.630;2022-11-21T03:45:45;2.70;;;2.10;;
26106;SDS011;13866;50.748;12.630;2022-11-21T03:48:12;2.20;;;2.20;;
26106;SDS011;13866;50.748;12.630;2022-11-21T03:50:40;2.10;;;2.10;;
26106;SDS011;13866;50.748;12.630;2022-11-21T03:53:07;2.50;;;2.37;;
26106;SDS011;13866;50.748;12.630;2022-11-21T03:55:32;3.10;;;2.73;;
26106;SDS011;13866;50.748;12.630;2022-11-21T03:57:58;2.93;;;2.67;;
26106;SDS011;13866;50.748;12.630;2022-11-21T04:00:23;2.30;;;2.20;;
26106;SDS011;13866;50.748;12.630;2022-11-21T04:02:49;1.87;;;1.87;;
26106;SDS011;13866;50.748;12.630;2022-11-21T04:05:14;1.90;;;1.90;;
26106;SDS011;13866;50.748;12.630;2022-11-21T04:07:40;2.63;;;2.57;;
26106;SDS011;13866;50.748;12.630;2022-11-21T04:10:06;2.10;;;2.00;;
26106;SDS011;13866;50.748;12.630;2022-11-21T04:12:31;2.33;;;2.27;;
26106;SDS011;13866;50.748;12.630;2022-11-21T04:14:57;2.70;;;2.57;;
26106;SDS011;13866;50.748;12.630;2022-11-21T04:17:22;2.10;;;2.00;;
26106;SDS011;13866;50.748;12.630;2022-11-21T04:19:48;5.43;;;2.80;;
26106;SDS011;13866;50.748;12.630;2022-11-21T04:22:13;1.80;;;1.80;;
26106;SDS011;13866;50.748;12.630;2022-11-21T04:24:39;1.87;;;1.77;;
26106;SDS011;13866;50.748;12.630;2022-11-21T04:27:04;2.27;;;2.10;;
26106;SDS011;13866;50.748;12.630;2022-11-21T04:29:30;2.30;;;2.30;;
26106;SDS011;13866;50.748;12.630;2022-11-21T04:31:55;2.67;;;2.20;;
26106;SDS011;13866;50.748;12.630;2022-11-21T04:34:21;2.50;;;2.43;;
26106;SDS011;13866;50.748;12.630;2022-11-21T04:36:46;2.57;;;2.20;;
26106;SDS011;13866;50.748;12.630;2022-11-21T04:39:12;1.80;;;1.80;;
26106;SDS011;13866;50.748;12.630;2022-11-21T04:41:37;2.63;;;2.63;;
26106;SDS011;13866;50.748;12.630;2022-11-21T04:44:03;2.80;;;2.37;;
26106;SDS011;13866;50.748;12.630;2022-11-21T04:46:28;1.80;;;1.80;;
26106;SDS011;13866;50.748;12.630;2022-11-21T04:48:54;2.83;;;2.73;;
26106;SDS011;13866;50.748;12.630;2022-11-21T04:51:19;3.60;;;2.63;;
26106;SDS011;13866;50.748;12.630;2022-11-21T04:53:45;2.50;;;2.40;;
26106;SDS011;13866;50.748;12.630;2022-11-21T04:56:10;7.37;;;2.90;;
26106;SDS011;13866;50.748;12.630;2022-11-21T04:58:40;2.30;;;2.30;;
26106;SDS011;13866;50.748;12.630;2022-11-21T05:01:06;2.40;;;1.80;;
26106;SDS011;13866;50.748;12.630;2022-11-21T05:03:33;2.87;;;2.40;;
26106;SDS011;13866;50.748;12.630;2022-11-21T05:05:58;2.20;;;2.10;;
26106;SDS011;13866;50.748;12.630;2022-11-21T05:08:24;2.40;;;2.30;;
26106;SDS011;13866;50.748;12.630;2022-11-21T05:10:50;2.30;;;2.30;;
26106;SDS011;13866;50.748;12.630;2022-11-21T05:13:34;3.13;;;2.90;;
26106;SDS011;13866;50.748;12.630;2022-11-21T05:15:59;2.67;;;2.40;;
26106;SDS011;13866;50.748;12.630;2022-11-21T05:18:25;2.03;;;2.03;;
26106;SDS011;13866;50.748;12.630;2022-11-21T05:20:50;2.23;;;2.13;;
26106;SDS011;13866;50.748;12.630;2022-11-21T05:23:16;2.13;;;2.10;;
26106;SDS011;13866;50.748;12.630;2022-11-21T05:25:41;2.80;;;2.60;;
26106;SDS011;13866;50.748;12.630;2022-11-21T05:28:07;2.47;;;2.47;;
26106;SDS011;13866;50.748;12.630;2022-11-21T05:30:32;2.40;;;2.20;;
26106;SDS011;13866;50.748;12.630;2022-11-21T05:32:58;2.40;;;2.20;;
26106;SDS011;13866;50.748;12.630;2022-11-21T05:35:23;4.20;;;2.47;;
26106;SDS011;13866;50.748;12.630;2022-11-21T05:37:54;2.20;;;2.20;;
26106;SDS011;13866;50.748;12.630;2022-11-21T05:40:21;2.50;;;2.50;;
26106;SDS011;13866;50.748;12.630;2022-11-21T05:42:46;2.30;;;2.20;;
26106;SDS011;13866;50.748;12.630;2022-11-21T05:45:30;4.30;;;2.43;;
26106;SDS011;13866;50.748;12.630;2022-11-21T05:47:56;2.10;;;2.00;;
26106;SDS011;13866;50.748;12.630;2022-11-21T05:50:21;2.30;;;2.30;;
26106;SDS011;13866;50.748;12.630;2022-11-21T05:52:47;2.77;;;2.77;;
26106;SDS011;13866;50.748;12.630;2022-11-21T05:55:13;2.37;;;2.23;;
26106;SDS011;13866;50.748;12.630;2022-11-21T05:57:38;2.10;;;2.00;;
26106;SDS011;13866;50.748;12.630;2022-11-21T06:00:04;2.13;;;1.97;;
26106;SDS011;13866;50.748;12.630;2022-11-21T06:02:30;3.53;;;2.20;;
26106;SDS011;13866;50.748;12.630;2022-11-21T06:05:14;2.40;;;2.30;;
26106;SDS011;13866;50.748;12.630;2022-11-21T06:07:39;2.20;;;2.20;;
26106;SDS011;13866;50.748;12.630;2022-11-21T06:10:05;2.20;;;2.20;;
26106;SDS011;13866;50.748;12.630;2022-11-21T06:12:30;2.27;;;2.20;;
26106;SDS011;13866;50.748;12.630;2022-11-21T06:14:56;2.00;;;2.00;;
26106;SDS011;13866;50.748;12.630;2022-11-21T06:17:21;2.00;;;2.00;;
26106;SDS011;13866;50.748;12.630;2022-11-21T06:19:47;2.60;;;2.60;;
26106;SDS011;13866;50.748;12.630;2022-11-21T06:22:12;3.70;;;3.70;;
26106;SDS011;13866;50.748;12.630;2022-11-21T06:24:38;4.80;;;4.60;;
26106;SDS011;13866;50.748;12.630;2022-11-21T06:27:03;6.07;;;5.97;;
26106;SDS011;13866;50.748;12.630;2022-11-21T06:29:29;6.20;;;6.00;;
26106;SDS011;13866;50.748;12.630;2022-11-21T06:31:54;6.30;;;6.10;;
26106;SDS011;13866;50.748;12.630;2022-11-21T06:34:20;7.00;;;6.70;;
26106;SDS011;13866;50.748;12.630;2022-11-21T06:36:46;8.47;;;8.07;;
26106;SDS011;13866;50.748;12.630;2022-11-21T06:39:11;8.00;;;7.70;;
26106;SDS011;13866;50.748;12.630;2022-11-21T06:41:37;9.23;;;8.83;;
26106;SDS011;13866;50.748;12.630;2022-11-21T06:44:02;9.07;;;8.50;;
26106;SDS011;13866;50.748;12.630;2022-11-21T06:46:28;9.40;;;8.90;;
26106;SDS011;13866;50.748;12.630;2022-11-21T06:48:53;11.03;;;10.27;;
26106;SDS011;13866;50.748;12.630;2022-11-21T06:51:19;10.30;;;9.60;;
26106;SDS011;13866;50.748;12.630;2022-11-21T06:53:47;11.27;;;10.20;;
26106;SDS011;13866;50.748;12.630;2022-11-21T06:56:19;10.60;;;9.80;;
26106;SDS011;13866;50.748;12.630;2022-11-21T06:58:45;11.43;;;10.53;;
26106;SDS011;13866;50.748;12.630;2022-11-21T07:01:11;11.50;;;10.60;;
26106;SDS011;13866;50.748;12.630;2022-11-21T07:03:37;11.80;;;10.93;;
26106;SDS011;13866;50.748;12.630;2022-11-21T07:06:03;11.07;;;10.13;;
26106;SDS011;13866;50.748;12.630;2022-11-21T07:08:30;10.85;;;10.13;;
26106;SDS011;13866;50.748;12.630;2022-11-21T07:11:00;13.70;;;12.43;;
26106;SDS011;13866;50.748;12.630;2022-11-21T07:13:26;13.48;;;12.25;;
26106;SDS011;13866;50.748;12.630;2022-11-21T07:15:52;12.50;;;11.13;;
26106;SDS011;13866;50.748;12.630;2022-11-21T07:18:20;13.68;;;12.40;;
26106;SDS011;13866;50.748;12.630;2022-11-21T07:20:46;12.27;;;11.35;;
26106;SDS011;13866;50.748;12.630;2022-11-21T07:23:12;13.02;;;11.93;;
26106;SDS011;13866;50.748;12.630;2022-11-21T07:25:38;13.20;;;12.13;;
26106;SDS011;13866;50.748;12.630;2022-11-21T07:28:05;12.43;;;11.40;;
26106;SDS011;13866;50.748;12.630;2022-11-21T07:30:31;13.90;;;12.15;;
26106;SDS011;13866;50.748;12.630;2022-11-21T07:32:58;13.07;;;11.97;;
26106;SDS011;13866;50.748;12.630;2022-11-21T07:35:25;12.68;;;11.60;;
26106;SDS011;13866;50.748;12.630;2022-11-21T07:37:51;12.25;;;11.15;;
26106;SDS011;13866;50.748;12.630;2022-11-21T07:40:17;10.63;;;9.93;;
26106;SDS011;13866;50.748;12.630;2022-11-21T07:42:43;11.63;;;10.52;;
26106;SDS011;13866;50.748;12.630;2022-11-21T07:45:09;17.10;;;12.50;;
26106;SDS011;13866;50.748;12.630;2022-11-21T07:47:35;13.50;;;12.40;;
26106;SDS011;13866;50.748;12.630;2022-11-21T07:50:00;13.80;;;12.43;;
26106;SDS011;13866;50.748;12.630;2022-11-21T07:52:26;14.53;;;13.00;;
26106;SDS011;13866;50.748;12.630;2022-11-21T07:54:54;13.27;;;12.20;;
26106;SDS011;13866;50.748;12.630;2022-11-21T07:57:22;14.60;;;13.25;;
26106;SDS011;13866;50.748;12.630;2022-11-21T07:59:48;13.50;;;12.40;;
26106;SDS011;13866;50.748;12.630;2022-11-21T08:02:20;12.30;;;11.50;;
26106;SDS011;13866;50.748;12.630;2022-11-21T08:04:47;16.85;;;15.50;;
26106;SDS011;13866;50.748;12.630;2022-11-21T08:07:14;12.60;;;11.70;;
26106;SDS011;13866;50.748;12.630;2022-11-21T08:09:40;14.82;;;13.63;;
26106;SDS011;13866;50.748;12.630;2022-11-21T08:12:06;14.53;;;13.03;;
26106;SDS011;13866;50.748;12.630;2022-11-21T08:14:33;13.63;;;12.43;;
26106;SDS011;13866;50.748;12.630;2022-11-21T08:16:58;13.93;;;12.63;;
26106;SDS011;13866;50.748;12.630;2022-11-21T08:19:24;13.27;;;12.23;;
26106;SDS011;13866;50.748;12.630;2022-11-21T08:21:49;13.53;;;12.13;;
26106;SDS011;13866;50.748;12.630;2022-11-21T08:24:15;12.77;;;11.80;;
26106;SDS011;13866;50.748;12.630;2022-11-21T08:26:41;14.77;;;13.32;;
26106;SDS011;13866;50.748;12.630;2022-11-21T08:29:08;15.50;;;14.00;;
26106;SDS011;13866;50.748;12.630;2022-11-21T08:31:35;15.10;;;13.73;;
26106;SDS011;13866;50.748;12.630;2022-11-21T08:34:01;15.00;;;13.70;;
26106;SDS011;13866;50.748;12.630;2022-11-21T08:36:26;15.30;;;14.03;;
26106;SDS011;13866;50.748;12.630;2022-11-21T08:38:52;16.90;;;15.20;;
26106;SDS011;13866;50.748;12.630;2022-11-21T08:41:17;16.57;;;15.00;;
26106;SDS011;13866;50.748;12.630;2022-11-21T08:44:01;14.65;;;13.48;;
26106;SDS011;13866;50.748;12.630;2022-11-21T08:46:28;15.63;;;14.25;;
26106;SDS011;13866;50.748;12.630;2022-11-21T08:48:56;14.60;;;13.40;;
26106;SDS011;13866;50.748;12.630;2022-11-21T08:51:21;18.97;;;17.07;;
26106;SDS011;13866;50.748;12.630;2022-11-21T08:53:47;17.87;;;16.17;;
26106;SDS011;13866;50.748;12.630;2022-11-21T08:56:12;20.80;;;18.60;;
26106;SDS011;13866;50.748;12.630;2022-11-21T08:58:38;19.13;;;17.23;;
26106;SDS011;13866;50.748;12.630;2022-11-21T09:01:04;19.50;;;17.60;;
26106;SDS011;13866;50.748;12.630;2022-11-21T09:03:29;20.87;;;18.20;;
26106;SDS011;13866;50.748;12.630;2022-11-21T09:05:56;21.40;;;19.20;;
26106;SDS011;13866;50.748;12.630;2022-11-21T09:08:21;18.33;;;16.43;;
26106;SDS011;13866;50.748;12.630;2022-11-21T09:10:47;19.35;;;17.55;;
26106;SDS011;13866;50.748;12.630;2022-11-21T09:13:13;19.93;;;17.23;;
26106;SDS011;13866;50.748;12.630;2022-11-21T09:15:38;20.33;;;18.07;;
26106;SDS011;13866;50.748;12.630;2022-11-21T09:18:22;20.10;;;18.00;;
26106;SDS011;13866;50.748;12.630;2022-11-21T09:20:48;23.00;;;20.50;;
26106;SDS011;13866;50.748;12.630;2022-11-21T09:23:14;18.90;;;17.00;;
26106;SDS011;13866;50.748;12.630;2022-11-21T09:25:40;20.88;;;18.67;;
26106;SDS011;13866;50.748;12.630;2022-11-21T09:28:07;21.87;;;19.50;;
26106;SDS011;13866;50.748;12.630;2022-11-21T09:30:33;22.70;;;20.40;;
26106;SDS011;13866;50.748;12.630;2022-11-21T09:33:00;23.88;;;19.98;;
26106;SDS011;13866;50.748;12.630;2022-11-21T09:35:26;24.52;;;19.95;;
26106;SDS011;13866;50.748;12.630;2022-11-21T09:37:52;30.43;;;24.20;;
26106;SDS011;13866;50.748;12.630;2022-11-21T09:40:17;26.73;;;23.60;;
26106;SDS011;13866;50.748;12.630;2022-11-21T09:45:29;27.00;;;23.83;;
26106;SDS011;13866;50.748;12.630;2022-11-21T09:47:59;27.55;;;22.40;;
26106;SDS011;13866;50.748;12.630;2022-11-21T09:50:38;28.23;;;23.33;;
26106;SDS011;13866;50.748;12.630;2022-11-21T09:55:59;30.17;;;23.67;;
26106;SDS011;13866;50.748;12.630;2022-11-21T10:00:59;31.02;;;24.15;;
26106;SDS011;13866;50.748;12.630;2022-11-21T10:03:26;27.80;;;23.57;;
26106;SDS011;13866;50.748;12.630;2022-11-21T10:05:57;27.48;;;22.10;;
26106;SDS011;13866;50.748;12.630;2022-11-21T10:08:33;27.77;;;22.02;;
26106;SDS011;13866;50.748;12.630;2022-11-21T10:20:21;28.13;;;22.58;;
26106;SDS011;13866;50.748;12.630;2022-11-21T10:25:38;19.45;;;17.42;;
26106;SDS011;13866;50.748;12.630;2022-11-21T10:28:21;19.80;;;17.70;;
26106;SDS011;13866;50.748;12.630;2022-11-21T10:31:02;20.90;;;18.40;;
26106;SDS011;13866;50.748;12.630;2022-11-21T10:33:33;18.90;;;17.00;;
26106;SDS011;13866;50.748;12.630;2022-11-21T10:36:01;23.20;;;18.00;;
26106;SDS011;13866;50.748;12.630;2022-11-21T10:38:36;21.00;;;18.60;;
26106;SDS011;13866;50.748;12.630;2022-11-21T10:41:14;22.58;;;18.15;;
26106;SDS011;13866;50.748;12.630;2022-11-21T10:43:48;21.10;;;18.93;;
26106;SDS011;13866;50.748;12.630;2022-11-21T10:46:39;32.95;;;21.00;;
26106;SDS011;13866;50.748;12.630;2022-11-21T10:49:21;25.88;;;20.38;;
26106;SDS011;13866;50.748;12.630;2022-11-21T10:54:30;22.17;;;19.80;;
26106;SDS011;13866;50.748;12.630;2022-11-21T10:57:05;24.23;;;19.37;;
26106;SDS011;13866;50.748;12.630;2022-11-21T10:59:39;25.45;;;20.33;;
26106;SDS011;13866;50.748;12.630;2022-11-21T11:04:37;25.83;;;20.10;;
26106;SDS011;13866;50.748;12.630;2022-11-21T11:07:12;29.00;;;23.33;;
26106;SDS011;13866;50.748;12.630;2022-11-21T11:09:43;25.48;;;20.95;;
26106;SDS011;13866;50.748;12.630;2022-11-21T11:14:50;27.30;;;21.63;;
26106;SDS011;13866;50.748;12.630;2022-11-21T11:17:25;27.60;;;21.50;;
26106;SDS011;13866;50.748;12.630;2022-11-21T11:19:59;24.90;;;20.70;;
26106;SDS011;13866;50.748;12.630;2022-11-21T11:22:31;27.17;;;20.20;;
26106;SDS011;13866;50.748;12.630;2022-11-21T11:24:57;26.97;;;20.67;;
26106;SDS011;13866;50.748;12.630;2022-11-21T11:27:26;26.70;;;22.13;;
26106;SDS011;13866;50.748;12.630;2022-11-21T11:29:52;26.13;;;22.37;;
26106;SDS011;13866;50.748;12.630;2022-11-21T11:32:18;25.63;;;21.27;;
26106;SDS011;13866;50.748;12.630;2022-11-21T11:39:47;29.30;;;23.63;;
26106;SDS011;13866;50.748;12.630;2022-11-21T11:45:15;25.13;;;20.80;;
26106;SDS011;13866;50.748;12.630;2022-11-21T11:48:09;29.50;;;21.83;;
26106;SDS011;13866;50.748;12.630;2022-11-21T11:50:55;28.30;;;21.88;;
26106;SDS011;13866;50.748;12.630;2022-11-21T11:53:26;26.85;;;22.70;;
26106;SDS011;13866;50.748;12.630;2022-11-21T11:56:01;28.73;;;21.73;;
26106;SDS011;13866;50.748;12.630;2022-11-21T11:58:35;32.30;;;21.33;;
26106;SDS011;13866;50.748;12.630;2022-11-21T12:01:06;26.73;;;21.73;;
26106;SDS011;13866;50.748;12.630;2022-11-21T12:03:45;24.10;;;20.65;;
26106;SDS011;13866;50.748;12.630;2022-11-21T12:09:01;32.90;;;24.50;;
26106;SDS011;13866;50.748;12.630;2022-11-21T12:17:16;25.27;;;19.67;;
26106;SDS011;13866;50.748;12.630;2022-11-21T12:19:48;23.53;;;20.60;;
26106;SDS011;13866;50.748;12.630;2022-11-21T12:22:17;28.52;;;19.00;;
26106;SDS011;13866;50.748;12.630;2022-11-21T12:24:42;29.57;;;20.83;;
26106;SDS011;13866;50.748;12.630;2022-11-21T12:27:26;32.00;;;23.83;;
26106;SDS011;13866;50.748;12.630;2022-11-21T12:30:19;27.57;;;21.60;;
26106;SDS011;13866;50.748;12.630;2022-11-21T12:33:05;26.30;;;20.07;;
26106;SDS011;13866;50.748;12.630;2022-11-21T12:44:28;24.10;;;20.40;;
26106;SDS011;13866;50.748;12.630;2022-11-21T12:47:12;22.23;;;19.93;;
26106;SDS011;13866;50.748;12.630;2022-11-21T12:50:01;18.53;;;16.77;;
26106;SDS011;13866;50.748;12.630;2022-11-21T12:53:11;21.07;;;18.00;;
26106;SDS011;13866;50.748;12.630;2022-11-21T12:56:21;27.33;;;20.30;;
26106;SDS011;13866;50.748;12.630;2022-11-21T12:59:05;24.60;;;19.97;;
26106;SDS011;13866;50.748;12.630;2022-11-21T13:01:37;21.30;;;19.00;;
26106;SDS011;13866;50.748;12.630;2022-11-21T13:04:34;30.60;;;20.37;;
26106;SDS011;13866;50.748;12.630;2022-11-21T13:07:02;27.00;;;18.70;;
26106;SDS011;13866;50.748;12.630;2022-11-21T13:09:29;19.40;;;17.10;;
26106;SDS011;13866;50.748;12.630;2022-11-21T13:12:05;26.07;;;20.10;;
26106;SDS011;13866;50.748;12.630;2022-11-21T13:20:05;23.50;;;19.40;;
26106;SDS011;13866;50.748;12.630;2022-11-21T13:22:47;22.33;;;17.90;;
26106;SDS011;13866;50.748;12.630;2022-11-21T13:30:47;18.03;;;16.33;;
26106;SDS011;13866;50.748;12.630;2022-11-21T13:42:04;22.20;;;18.83;;
26106;SDS011;13866;50.748;12.630;2022-11-21T13:44:35;17.73;;;16.00;;
26106;SDS011;13866;50.748;12.630;2022-11-21T13:47:07;19.47;;;17.20;;
26106;SDS011;13866;50.748;12.630;2022-11-21T14:09:48;19.03;;;17.17;;
26106;SDS011;13866;50.748;12.630;2022-11-21T14:12:20;22.97;;;18.50;;
26106;SDS011;13866;50.748;12.630;2022-11-21T14:14:52;20.67;;;18.47;;
26106;SDS011;13866;50.748;12.630;2022-11-21T14:17:45;23.53;;;17.73;;
26106;SDS011;13866;50.748;12.630;2022-11-21T14:20:20;21.07;;;18.47;;
26106;SDS011;13866;50.748;12.630;2022-11-21T14:23:04;21.63;;;19.33;;
26106;SDS011;13866;50.748;12.630;2022-11-21T14:28:05;25.43;;;20.30;;
26106;SDS011;13866;50.748;12.630;2022-11-21T14:30:40;26.90;;;21.40;;
26106;SDS011;13866;50.748;12.630;2022-11-21T14:33:26;31.20;;;23.80;;
26106;SDS011;13866;50.748;12.630;2022-11-21T14:38:23;25.03;;;22.33;;
26106;SDS011;13866;50.748;12.630;2022-11-21T14:40:49;39.63;;;27.27;;
26106;SDS011;13866;50.748;12.630;2022-11-21T14:43:35;34.10;;;24.77;;
26106;SDS011;13866;50.748;12.630;2022-11-21T14:46:00;39.90;;;25.87;;
26106;SDS011;13866;50.748;12.630;2022-11-21T14:48:29;26.57;;;22.33;;
26106;SDS011;13866;50.748;12.630;2022-11-21T14:50:58;39.37;;;28.83;;
26106;SDS011;13866;50.748;12.630;2022-11-21T14:53:25;86.57;;;51.03;;
26106;SDS011;13866;50.748;12.630;2022-11-21T14:55:51;69.37;;;43.37;;
26106;SDS011;13866;50.748;12.630;2022-11-21T14:58:17;40.83;;;30.33;;
26106;SDS011;13866;50.748;12.630;2022-11-21T15:01:12;32.77;;;24.40;;
26106;SDS011;13866;50.748;12.630;2022-11-21T15:03:54;26.20;;;22.07;;
26106;SDS011;13866;50.748;12.630;2022-11-21T15:06:21;24.40;;;20.37;;
26106;SDS011;13866;50.748;12.630;2022-11-21T15:08:48;26.33;;;20.43;;
26106;SDS011;13866;50.748;12.630;2022-11-21T15:11:13;23.30;;;19.30;;
26106;SDS011;13866;50.748;12.630;2022-11-21T15:13:41;24.77;;;19.77;;
26106;SDS011;13866;50.748;12.630;2022-11-21T15:16:11;23.13;;;20.77;;
26106;SDS011;13866;50.748;12.630;2022-11-21T15:18:38;20.83;;;17.50;;
26106;SDS011;13866;50.748;12.630;2022-11-21T15:21:05;21.63;;;19.03;;
26106;SDS011;13866;50.748;12.630;2022-11-21T15:23:32;19.73;;;17.70;;
26106;SDS011;13866;50.748;12.630;2022-11-21T15:25:59;20.80;;;16.77;;
26106;SDS011;13866;50.748;12.630;2022-11-21T15:28:26;23.97;;;18.73;;
26106;SDS011;13866;50.748;12.630;2022-11-21T15:33:57;23.47;;;18.20;;
26106;SDS011;13866;50.748;12.630;2022-11-21T15:36:28;19.87;;;17.80;;
26106;SDS011;13866;50.748;12.630;2022-11-21T15:38:55;20.73;;;16.47;;
26106;SDS011;13866;50.748;12.630;2022-11-21T15:46:25;19.37;;;17.43;;
26106;SDS011;13866;50.748;12.630;2022-11-21T15:51:20;19.77;;;15.50;;
26106;SDS011;13866;50.748;12.630;2022-11-21T15:53:54;16.47;;;14.77;;
26106;SDS011;13866;50.748;12.630;2022-11-21T15:56:20;15.40;;;14.07;;
26106;SDS011;13866;50.748;12.630;2022-11-21T15:58:46;18.93;;;16.93;;
26106;SDS011;13866;50.748;12.630;2022-11-21T16:01:17;18.00;;;16.23;;
26106;SDS011;13866;50.748;12.630;2022-11-21T16:03:44;29.53;;;22.70;;
26106;SDS011;13866;50.748;12.630;2022-11-21T16:06:12;29.93;;;24.40;;
26106;SDS011;13866;50.748;12.630;2022-11-21T16:08:37;25.50;;;22.80;;
26106;SDS011;13866;50.748;12.630;2022-11-21T16:11:03;27.97;;;23.60;;
26106;SDS011;13866;50.748;12.630;2022-11-21T16:13:29;23.37;;;20.97;;
26106;SDS011;13866;50.748;12.630;2022-11-21T16:15:54;29.50;;;24.77;;
26106;SDS011;13866;50.748;12.630;2022-11-21T16:18:20;27.47;;;24.37;;
26106;SDS011;13866;50.748;12.630;2022-11-21T16:20:45;25.97;;;22.77;;
26106;SDS011;13866;50.748;12.630;2022-11-21T16:23:11;27.17;;;23.77;;